Time;durP1;ratioP1;P1;durP2;ratioP2;P2;SDS_P1;SDS_P2;PMS_P1;PMS_P2;Temp;Humidity;BMP_temperature;BMP_pressure;BME280_temperature;BME280_humidity;BME280_pressure;Samples;Min_cycle;Max_cycle;Signal;HPM_P1;HPM_P2
2022/05/12 00:01:06;;;;;;;2.20;1.40;;;19.00;82.60;;;;;;5052472;28;20032;-52
2022/05/12 00:03:31;;;;;;;4.32;1.27;;;19.00;82.90;;;;;;5052172;28;20112;-54
2022/05/12 00:05:57;;;;;;;3.47;1.35;;;19.10;83.80;;;;;;5052182;28;20024;-53
2022/05/12 00:08:23;;;;;;;3.05;1.23;;;19.00;83.50;;;;;;5052089;28;20029;-54
2022/05/12 00:10:48;;;;;;;2.60;1.20;;;19.10;85.30;;;;;;5053518;28;20028;-50
2022/05/12 00:13:14;;;;;;;2.97;1.35;;;19.10;83.60;;;;;;5052379;28;20035;-52
2022/05/12 00:15:40;;;;;;;4.70;1.63;;;19.20;83.90;;;;;;5052040;28;20032;-54
2022/05/12 00:18:08;;;;;;;4.40;1.23;;;19.20;84.90;;;;;;5053105;28;20043;-56
2022/05/12 00:20:37;;;;;;;2.20;1.23;;;19.30;85.10;;;;;;5051905;28;20044;-51
2022/05/12 00:23:26;;;;;;;2.25;1.60;;;19.30;85.30;;;;;;5053194;28;20024;-53
2022/05/12 00:25:52;;;;;;;2.30;1.30;;;19.40;84.60;;;;;;5052727;28;20071;-54
2022/05/12 00:28:20;;;;;;;3.78;1.10;;;19.50;85.40;;;;;;5053458;28;20029;-54
2022/05/12 00:30:48;;;;;;;1.20;1.10;;;19.50;85.00;;;;;;5051180;28;20064;-55
2022/05/12 00:33:15;;;;;;;1.05;0.73;;;19.50;86.00;;;;;;5053198;28;20033;-55
2022/05/12 00:35:43;;;;;;;3.28;1.17;;;19.50;85.90;;;;;;5052042;28;20028;-52
2022/05/12 00:38:10;;;;;;;2.47;0.93;;;19.50;85.90;;;;;;5052779;28;20052;-51
2022/05/12 00:40:36;;;;;;;1.13;0.95;;;19.50;86.60;;;;;;5051696;28;20051;-56
2022/05/12 00:43:06;;;;;;;6.30;1.10;;;19.50;86.50;;;;;;5053356;28;20591;-53
2022/05/12 00:45:35;;;;;;;1.35;1.10;;;19.50;85.90;;;;;;5051656;28;20021;-56
2022/05/12 00:48:02;;;;;;;2.95;1.00;;;19.50;86.60;;;;;;5053126;28;20032;-56
2022/05/12 00:50:42;;;;;;;2.05;0.90;;;19.50;86.20;;;;;;5052723;28;20029;-57
2022/05/12 00:53:10;;;;;;;2.00;1.30;;;19.50;87.50;;;;;;5053191;28;20050;-55
2022/05/12 00:55:39;;;;;;;1.60;1.08;;;19.40;88.50;;;;;;5052742;28;20058;-57
2022/05/12 00:58:08;;;;;;;5.18;1.17;;;19.50;89.00;;;;;;5051502;28;20052;-51
2022/05/12 01:00:35;;;;;;;0.95;0.80;;;19.50;87.70;;;;;;5052798;28;20017;-51
2022/05/12 01:03:05;;;;;;;1.77;1.10;;;19.50;89.80;;;;;;5052849;28;20021;-53
2022/05/12 01:05:31;;;;;;;3.60;1.20;;;19.50;89.90;;;;;;5052219;28;20013;-53
2022/05/12 01:07:57;;;;;;;3.05;1.50;;;19.50;89.10;;;;;;5052617;28;20091;-53
2022/05/12 01:10:25;;;;;;;5.63;1.15;;;19.50;89.60;;;;;;5052575;28;20021;-52
2022/05/12 01:12:52;;;;;;;1.63;1.25;;;19.40;90.60;;;;;;5052295;28;20476;-52
2022/05/12 01:15:44;;;;;;;1.67;1.05;;;19.40;90.30;;;;;;5051878;28;20036;-55
2022/05/12 01:18:15;;;;;;;4.35;2.38;;;19.40;90.50;;;;;;5052921;28;20031;-51
2022/05/12 01:20:41;;;;;;;2.95;1.17;;;19.40;90.60;;;;;;5052532;28;20092;-54
2022/05/12 01:23:32;;;;;;;4.60;1.23;;;19.40;90.70;;;;;;5051259;28;20029;-55
2022/05/12 01:26:00;;;;;;;2.95;1.25;;;19.40;91.10;;;;;;5052177;28;20025;-52
2022/05/12 01:28:27;;;;;;;6.80;1.15;;;19.30;91.20;;;;;;5051244;28;20029;-50
2022/05/12 01:30:53;;;;;;;4.25;1.08;;;19.30;91.70;;;;;;5052314;28;20033;-54
2022/05/12 01:33:19;;;;;;;7.55;1.60;;;19.30;91.70;;;;;;5053061;28;20025;-53
2022/05/12 01:35:45;;;;;;;7.57;1.35;;;19.30;91.90;;;;;;5051931;28;20063;-50
2022/05/12 01:38:11;;;;;;;4.70;1.58;;;19.20;92.20;;;;;;5052431;28;20029;-55
2022/05/12 01:40:37;;;;;;;7.55;1.52;;;19.20;92.00;;;;;;5051180;28;20021;-53
2022/05/12 01:43:02;;;;;;;6.53;1.85;;;19.20;92.60;;;;;;5054136;28;20055;-55
2022/05/12 01:45:28;;;;;;;8.77;1.50;;;19.10;92.50;;;;;;5055720;28;20372;-53
2022/05/12 01:47:54;;;;;;;5.07;1.50;;;19.10;92.30;;;;;;5055210;28;20025;-50
2022/05/12 01:50:20;;;;;;;11.80;2.55;;;19.00;93.30;;;;;;5054788;28;20028;-52
2022/05/12 01:52:46;;;;;;;7.88;1.95;;;19.00;94.30;;;;;;5056049;28;20025;-54
2022/05/12 01:55:14;;;;;;;3.70;1.40;;;19.00;94.90;;;;;;5056068;28;20047;-53
2022/05/12 01:57:43;;;;;;;7.97;2.03;;;19.00;94.70;;;;;;5054497;28;20139;-55
2022/05/12 02:00:12;;;;;;;5.43;1.60;;;19.00;94.80;;;;;;5054814;28;20025;-57
2022/05/12 02:02:39;;;;;;;5.90;1.85;;;18.90;95.60;;;;;;5054606;28;20044;-51
2022/05/12 02:05:09;;;;;;;9.13;1.55;;;18.80;96.50;;;;;;5055690;28;20048;-55
2022/05/12 02:07:36;;;;;;;2.90;1.45;;;18.80;97.00;;;;;;5056070;28;20096;-55
2022/05/12 02:10:04;;;;;;;9.25;2.28;;;18.80;97.50;;;;;;5055266;28;20032;-51
2022/05/12 02:12:30;;;;;;;11.18;1.60;;;18.70;98.40;;;;;;5055630;28;20151;-50
2022/05/12 02:14:55;;;;;;;3.85;1.60;;;18.50;99.30;;;;;;5056188;28;20462;-53
2022/05/12 02:17:21;;;;;;;5.95;1.50;;;18.40;99.90;;;;;;5056012;28;20029;-57
2022/05/12 02:19:47;;;;;;;9.20;1.60;;;18.40;99.90;;;;;;5054573;28;20044;-57
2022/05/12 02:22:12;;;;;;;7.95;2.30;;;18.40;99.90;;;;;;5055492;28;20103;-51
2022/05/12 02:24:38;;;;;;;5.07;1.77;;;18.30;99.90;;;;;;5055523;28;20130;-55
2022/05/12 02:27:04;;;;;;;3.60;1.48;;;18.20;99.90;;;;;;5054080;28;20386;-54
2022/05/12 02:29:29;;;;;;;6.03;1.95;;;18.20;99.90;;;;;;5054410;28;20059;-55
2022/05/12 02:31:55;;;;;;;8.75;1.80;;;18.10;99.90;;;;;;5055302;28;20032;-55
2022/05/12 02:34:20;;;;;;;2.22;1.30;;;18.10;99.90;;;;;;5053960;28;20356;-56
2022/05/12 02:36:59;;;;;;;8.63;1.85;;;18.00;99.90;;;;;;5054164;28;20061;-56
2022/05/12 02:39:27;;;;;;;3.42;1.95;;;18.00;99.90;;;;;;5054412;28;20479;-56
2022/05/12 02:41:53;;;;;;;4.32;1.58;;;18.00;99.90;;;;;;5055104;28;20029;-56
2022/05/12 02:44:19;;;;;;;7.00;1.83;;;18.00;99.90;;;;;;5055120;28;20025;-53
2022/05/12 02:46:44;;;;;;;11.73;1.73;;;18.10;99.90;;;;;;5053777;28;20027;-54
2022/05/12 02:49:10;;;;;;;3.38;1.23;;;18.20;99.90;;;;;;5053733;28;20112;-55
2022/05/12 02:51:36;;;;;;;2.65;1.25;;;18.30;99.90;;;;;;5054864;28;20024;-50
2022/05/12 02:54:02;;;;;;;3.45;1.20;;;18.30;99.90;;;;;;5052743;28;20029;-52
2022/05/12 02:56:27;;;;;;;3.08;1.10;;;18.30;99.90;;;;;;5053629;28;20025;-57
2022/05/12 02:58:53;;;;;;;5.80;0.98;;;18.40;99.90;;;;;;5054521;28;20502;-53
2022/05/12 03:01:19;;;;;;;2.25;1.13;;;18.40;99.90;;;;;;5053698;28;20053;-54
2022/05/12 03:03:45;;;;;;;1.67;0.63;;;18.50;99.90;;;;;;5053371;28;20032;-57
2022/05/12 03:06:11;;;;;;;3.95;1.00;;;18.50;99.90;;;;;;5054644;28;20074;-52
2022/05/12 03:08:37;;;;;;;3.25;0.85;;;18.40;99.90;;;;;;5055074;28;20043;-52
2022/05/12 03:11:04;;;;;;;2.75;0.93;;;18.40;99.90;;;;;;5054237;28;20040;-56
2022/05/12 03:13:31;;;;;;;6.57;1.23;;;18.40;99.90;;;;;;5054385;28;20028;-58
2022/05/12 03:15:57;;;;;;;3.30;1.02;;;18.40;99.90;;;;;;5054416;28;20025;-56
2022/05/12 03:18:24;;;;;;;1.33;0.82;;;18.40;99.90;;;;;;5053355;28;20032;-54
2022/05/12 03:20:50;;;;;;;1.98;0.82;;;18.40;99.90;;;;;;5053481;28;20021;-57
2022/05/12 03:23:16;;;;;;;3.72;1.55;;;18.30;99.90;;;;;;5053076;28;20557;-55
2022/05/12 03:25:43;;;;;;;4.70;1.40;;;18.30;99.90;;;;;;5054294;28;20070;-55
2022/05/12 03:28:09;;;;;;;2.55;1.00;;;18.20;99.90;;;;;;5054394;28;20025;-51
2022/05/12 03:30:35;;;;;;;3.85;0.98;;;18.10;99.90;;;;;;5053217;28;20025;-56
2022/05/12 03:33:00;;;;;;;2.10;1.02;;;18.00;99.90;;;;;;5053503;28;20032;-55
2022/05/12 03:35:26;;;;;;;6.07;0.90;;;17.90;99.90;;;;;;5052968;28;20119;-52
2022/05/12 03:37:52;;;;;;;3.78;1.08;;;17.90;99.90;;;;;;5054243;28;20033;-53
2022/05/12 03:40:18;;;;;;;3.63;1.10;;;17.90;99.90;;;;;;5053317;28;20025;-54
2022/05/12 03:42:44;;;;;;;2.40;1.20;;;18.00;99.90;;;;;;5053965;28;20060;-55
2022/05/12 03:45:10;;;;;;;3.03;1.10;;;18.10;99.90;;;;;;5054078;28;20044;-56
2022/05/12 03:47:38;;;;;;;4.03;1.30;;;18.10;99.90;;;;;;5052933;28;20021;-56
2022/05/12 03:50:14;;;;;;;3.63;1.42;;;18.10;99.90;;;;;;5052368;28;20048;-56
2022/05/12 03:52:40;;;;;;;4.35;1.08;;;18.20;99.90;;;;;;5053283;28;20135;-57
2022/05/12 03:55:07;;;;;;;9.07;1.27;;;18.20;99.90;;;;;;5053648;28;20081;-51
2022/05/12 03:57:33;;;;;;;3.88;1.35;;;18.20;99.90;;;;;;5053447;28;20162;-55
2022/05/12 04:00:00;;;;;;;2.72;1.20;;;18.20;99.90;;;;;;5053600;28;20096;-55
2022/05/12 04:02:26;;;;;;;2.47;1.20;;;18.10;99.90;;;;;;5053651;28;20024;-56
2022/05/12 04:04:52;;;;;;;5.35;0.93;;;18.10;99.90;;;;;;5053746;28;20020;-53
2022/05/12 04:07:20;;;;;;;5.95;1.75;;;18.00;99.90;;;;;;5052266;28;20060;-57
2022/05/12 04:09:46;;;;;;;2.65;1.30;;;17.90;99.90;;;;;;5051945;28;20120;-56
2022/05/12 04:12:11;;;;;;;2.90;1.20;;;17.90;99.90;;;;;;5053354;28;20061;-57
2022/05/12 04:14:38;;;;;;;5.03;1.38;;;17.90;99.90;;;;;;5052111;28;20044;-55
2022/05/12 04:17:06;;;;;;;7.68;1.48;;;18.00;99.90;;;;;;5052792;28;20128;-54
2022/05/12 04:19:31;;;;;;;2.75;1.35;;;18.00;99.90;;;;;;5053176;28;20044;-57
2022/05/12 04:21:57;;;;;;;5.10;1.23;;;17.90;99.90;;;;;;5052264;28;20075;-57
2022/05/12 04:24:23;;;;;;;4.63;1.20;;;17.90;99.90;;;;;;5052317;28;20029;-50
2022/05/12 04:26:48;;;;;;;3.63;1.20;;;17.90;99.90;;;;;;5053192;28;20021;-50
2022/05/12 04:29:14;;;;;;;4.57;1.40;;;17.90;99.90;;;;;;5051965;28;20071;-52
2022/05/12 04:31:41;;;;;;;5.28;1.33;;;17.90;99.90;;;;;;5052268;28;20112;-51
2022/05/12 04:36:51;;;;;;;5.25;1.45;;;17.80;99.90;;;;;;5053985;28;20059;-55
2022/05/12 04:39:17;;;;;;;2.42;1.65;;;17.80;99.90;;;;;;5053263;28;20046;-57
2022/05/12 04:41:43;;;;;;;5.22;1.63;;;17.80;99.90;;;;;;5053750;28;20052;-53
2022/05/12 04:44:09;;;;;;;11.98;1.60;;;17.90;99.90;;;;;;5052394;28;20028;-56
2022/05/12 04:46:37;;;;;;;2.83;1.33;;;17.90;99.90;;;;;;5052878;28;20021;-57
2022/05/12 04:49:04;;;;;;;5.68;1.65;;;18.00;99.90;;;;;;5053154;28;20021;-55
2022/05/12 04:51:30;;;;;;;2.80;1.50;;;18.30;99.90;;;;;;5052089;28;20025;-57
2022/05/12 04:53:55;;;;;;;6.97;2.03;;;18.70;99.90;;;;;;5052005;28;20100;-56
2022/05/12 04:56:21;;;;;;;7.07;2.30;;;19.10;99.90;;;;;;5053200;28;20547;-56
2022/05/12 04:58:46;;;;;;;6.10;2.55;;;19.40;99.90;;;;;;5051998;28;20079;-54
2022/05/12 05:01:12;;;;;;;8.23;3.10;;;19.60;99.90;;;;;;5051907;28;20033;-52
2022/05/12 05:03:38;;;;;;;10.35;3.67;;;19.90;99.90;;;;;;5053124;28;20013;-53
2022/05/12 05:06:04;;;;;;;11.13;3.90;;;20.30;99.90;;;;;;5051805;28;20021;-55
2022/05/12 05:08:29;;;;;;;11.15;4.15;;;20.80;99.90;;;;;;5052087;28;20399;-53
2022/05/12 05:10:55;;;;;;;9.13;4.03;;;21.20;99.90;;;;;;5051906;28;20029;-54
2022/05/12 05:13:22;;;;;;;12.55;3.60;;;21.70;99.90;;;;;;5051952;28;20033;-56
2022/05/12 05:15:49;;;;;;;10.43;2.67;;;22.00;99.90;;;;;;5053104;28;20407;-57
2022/05/12 05:18:17;;;;;;;9.20;2.42;;;22.20;99.90;;;;;;5053976;28;20058;-55
2022/05/12 05:20:44;;;;;;;4.60;1.67;;;22.30;99.90;;;;;;5057073;28;20029;-54
2022/05/12 05:23:15;;;;;;;3.40;2.03;;;22.40;99.90;;;;;;5056007;28;20025;-55
2022/05/12 05:25:41;;;;;;;4.88;1.58;;;22.60;99.90;;;;;;5056959;28;20067;-54
2022/05/12 05:28:08;;;;;;;4.97;1.50;;;22.70;99.90;;;;;;5056820;28;20112;-54
2022/05/12 05:30:33;;;;;;;3.58;1.48;;;22.80;99.90;;;;;;5055818;28;20027;-56
2022/05/12 05:32:59;;;;;;;6.78;2.47;;;23.00;99.90;;;;;;5056834;28;20095;-55
2022/05/12 05:35:25;;;;;;;4.55;2.25;;;23.20;99.90;;;;;;5055541;28;20028;-57
2022/05/12 05:37:52;;;;;;;6.53;2.00;;;23.40;99.90;;;;;;5056672;28;20025;-57
2022/05/12 05:40:22;;;;;;;2.53;1.55;;;23.70;99.90;;;;;;5055738;28;20517;-52
2022/05/12 05:42:48;;;;;;;5.22;1.73;;;23.90;99.90;;;;;;5055397;28;20028;-54
2022/05/12 05:45:17;;;;;;;2.63;1.40;;;23.90;99.60;;;;;;5055337;28;20025;-53
2022/05/12 05:47:46;;;;;;;4.13;1.80;;;24.10;98.80;;;;;;5056869;28;20025;-54
2022/05/12 05:50:21;;;;;;;3.83;1.77;;;24.20;98.40;;;;;;5056601;28;20088;-55
2022/05/12 05:55:32;;;;;;;3.55;1.65;;;24.80;97.40;;;;;;5056910;28;20055;-53
2022/05/12 05:57:59;;;;;;;4.47;1.88;;;25.30;97.20;;;;;;5056580;28;20079;-57
2022/05/12 06:00:25;;;;;;;7.20;1.98;;;25.10;95.70;;;;;;5056371;28;20029;-55
2022/05/12 06:02:51;;;;;;;4.47;1.85;;;25.10;95.90;;;;;;5056444;28;20096;-52
2022/05/12 06:05:17;;;;;;;3.88;1.58;;;25.30;95.40;;;;;;5054992;28;20498;-56
2022/05/12 06:07:43;;;;;;;3.33;1.77;;;25.20;95.00;;;;;;5055122;28;20056;-53
2022/05/12 06:10:09;;;;;;;4.63;2.75;;;25.50;95.40;;;;;;5055957;28;20037;-57
2022/05/12 06:12:35;;;;;;;2.67;1.90;;;25.70;93.80;;;;;;5056073;28;20025;-55
2022/05/12 06:15:01;;;;;;;4.93;2.00;;;25.70;94.10;;;;;;5054770;28;20376;-56
2022/05/12 06:17:27;;;;;;;4.15;1.90;;;25.50;93.70;;;;;;5056075;28;20074;-54
2022/05/12 06:19:54;;;;;;;5.05;1.90;;;25.10;94.60;;;;;;5054939;28;20082;-56
2022/05/12 06:22:20;;;;;;;9.13;1.63;;;25.10;94.30;;;;;;5054762;28;20021;-52
2022/05/12 06:24:49;;;;;;;3.72;1.83;;;25.20;94.50;;;;;;5055798;28;20077;-52
2022/05/12 06:27:19;;;;;;;5.25;2.08;;;25.50;93.80;;;;;;5054521;28;20032;-56
2022/05/12 06:29:45;;;;;;;3.58;2.13;;;25.90;93.50;;;;;;5053332;28;20032;-57
2022/05/12 06:32:11;;;;;;;5.68;2.00;;;26.60;92.30;;;;;;5054393;28;20063;-55
2022/05/12 06:34:37;;;;;;;6.93;1.98;;;27.40;90.70;;;;;;5055636;28;20426;-57
2022/05/12 06:37:04;;;;;;;7.10;2.15;;;28.00;89.20;;;;;;5054378;28;20025;-57
2022/05/12 06:39:30;;;;;;;6.45;2.10;;;27.90;89.30;;;;;;5055506;28;20018;-56
2022/05/12 06:41:56;;;;;;;3.72;1.75;;;28.30;85.70;;;;;;5055500;28;20036;-57
2022/05/12 06:44:22;;;;;;;2.60;1.60;;;28.80;84.10;;;;;;5055323;28;20048;-57
2022/05/12 06:46:48;;;;;;;2.70;1.75;;;29.60;85.00;;;;;;5055081;28;20049;-55
2022/05/12 06:49:14;;;;;;;4.65;2.05;;;30.30;81.10;;;;;;5053967;28;20487;-56
2022/05/12 06:51:40;;;;;;;4.20;2.08;;;30.90;78.70;;;;;;5054233;28;20029;-57
2022/05/12 06:54:06;;;;;;;4.78;1.73;;;31.30;75.40;;;;;;5055253;28;20048;-56
2022/05/12 06:56:32;;;;;;;6.40;1.70;;;31.50;74.10;;;;;;5053873;28;20487;-57
2022/05/12 06:58:58;;;;;;;3.88;1.90;;;31.80;73.70;;;;;;5055137;28;20025;-58
2022/05/12 07:01:24;;;;;;;4.60;1.88;;;31.70;71.30;;;;;;5055173;28;20017;-58
2022/05/12 07:03:50;;;;;;;4.43;1.73;;;32.30;71.70;;;;;;5055117;28;20022;-55
2022/05/12 07:06:16;;;;;;;3.20;1.88;;;32.50;69.60;;;;;;5053940;28;20112;-58
2022/05/12 07:08:42;;;;;;;3.20;2.00;;;33.00;69.90;;;;;;5055046;28;20060;-58
2022/05/12 07:11:12;;;;;;;5.63;1.98;;;33.20;65.90;;;;;;5053722;28;20029;-55
2022/05/12 07:13:38;;;;;;;6.47;2.20;;;33.00;65.90;;;;;;5053789;28;20056;-58
2022/05/12 07:16:06;;;;;;;2.70;1.75;;;33.10;65.40;;;;;;5055055;28;20681;-58
2022/05/12 07:18:34;;;;;;;3.13;2.00;;;33.20;62.80;;;;;;5053561;28;20167;-58
2022/05/12 07:26:40;;;;;;;3.08;1.80;;;32.70;63.50;;;;;;5054980;28;20040;-56
2022/05/12 07:29:13;;;;;;;3.15;1.70;;;32.60;62.20;;;;;;5054683;28;20071;-56
2022/05/12 07:31:39;;;;;;;2.42;1.52;;;33.30;61.40;;;;;;5053300;28;20025;-58
2022/05/12 07:34:05;;;;;;;4.28;1.83;;;33.90;61.60;;;;;;5054569;28;20028;-59
2022/05/12 07:36:41;;;;;;;3.47;1.77;;;33.30;61.80;;;;;;5053235;28;20021;-58
2022/05/12 07:39:07;;;;;;;3.97;1.75;;;33.00;61.10;;;;;;5053138;28;20163;-56
2022/05/12 07:41:34;;;;;;;5.45;1.88;;;32.30;61.90;;;;;;5053035;28;20111;-57
2022/05/12 07:44:00;;;;;;;4.10;1.30;;;33.00;59.80;;;;;;5053942;28;20021;-57
2022/05/12 07:46:29;;;;;;;5.60;1.77;;;33.60;59.10;;;;;;5053011;28;20043;-58
2022/05/12 07:48:56;;;;;;;2.13;1.42;;;34.70;59.40;;;;;;5054004;28;20110;-57
2022/05/12 07:51:22;;;;;;;6.45;1.90;;;35.30;56.80;;;;;;5054134;28;20035;-56
2022/05/12 07:53:49;;;;;;;3.95;1.50;;;35.80;55.60;;;;;;5052916;28;20028;-55
2022/05/12 07:56:17;;;;;;;1.40;1.20;;;35.00;56.20;;;;;;5054068;28;20108;-57
2022/05/12 07:58:44;;;;;;;2.72;1.80;;;35.00;56.70;;;;;;5052937;28;20090;-57
2022/05/12 08:01:11;;;;;;;3.17;1.50;;;35.80;55.80;;;;;;5052783;28;20063;-53
2022/05/12 08:03:38;;;;;;;5.40;2.75;;;35.70;55.20;;;;;;5053960;28;20024;-56
2022/05/12 08:06:04;;;;;;;4.68;1.75;;;34.90;56.30;;;;;;5053533;28;20067;-55
2022/05/12 08:08:30;;;;;;;3.83;1.80;;;33.30;57.30;;;;;;5052644;28;20117;-55
2022/05/12 08:10:56;;;;;;;3.63;1.80;;;32.30;59.80;;;;;;5052491;28;20032;-57
2022/05/12 08:13:22;;;;;;;2.22;1.52;;;32.40;59.60;;;;;;5052630;28;20029;-52
2022/05/12 08:15:50;;;;;;;1.77;1.20;;;32.80;59.30;;;;;;5052627;28;20025;-56
2022/05/12 08:18:19;;;;;;;3.25;1.70;;;33.60;57.90;;;;;;5053884;28;20044;-58
2022/05/12 08:20:45;;;;;;;4.13;1.33;;;33.80;57.30;;;;;;5052363;28;20055;-57
2022/05/12 08:23:11;;;;;;;3.83;1.52;;;34.10;57.60;;;;;;5053934;28;20424;-57
2022/05/12 08:25:38;;;;;;;2.55;1.38;;;35.10;55.60;;;;;;5052442;28;20098;-58
2022/05/12 08:28:04;;;;;;;3.10;1.20;;;35.20;54.70;;;;;;5052339;28;20060;-58
2022/05/12 08:30:30;;;;;;;3.03;1.60;;;35.40;55.10;;;;;;5053577;28;20083;-54
2022/05/12 08:32:56;;;;;;;2.95;1.40;;;34.60;55.10;;;;;;5054052;28;20025;-61
2022/05/12 08:35:23;;;;;;;3.22;1.27;;;34.50;55.60;;;;;;5053753;28;20028;-61
2022/05/12 08:37:48;;;;;;;2.88;1.50;;;35.10;55.50;;;;;;5053572;28;20021;-61
2022/05/12 08:40:45;;;;;;;3.63;1.70;;;35.60;53.80;;;;;;5052331;28;20036;-61
2022/05/12 08:43:22;;;;;;;3.33;1.30;;;35.70;55.20;;;;;;5052122;28;20025;-60
2022/05/12 08:45:50;;;;;;;2.95;1.70;;;36.00;54.10;;;;;;5052169;28;20043;-61
2022/05/12 08:48:17;;;;;;;4.15;1.65;;;36.10;53.00;;;;;;5052072;28;20025;-60
2022/05/12 08:50:47;;;;;;;2.35;1.42;;;34.90;54.10;;;;;;5053325;28;20029;-60
2022/05/12 08:53:18;;;;;;;3.65;1.40;;;35.30;54.50;;;;;;5051326;28;20033;-61
2022/05/12 08:55:54;;;;;;;3.45;1.55;;;36.20;53.10;;;;;;5053596;28;20028;-61
2022/05/12 08:58:30;;;;;;;2.08;1.42;;;37.10;51.50;;;;;;5051895;28;20033;-61
2022/05/12 09:01:10;;;;;;;3.00;1.60;;;37.70;51.40;;;;;;5053080;28;20040;-61
2022/05/12 09:03:48;;;;;;;3.22;1.35;;;38.00;51.20;;;;;;5052628;28;20017;-60
2022/05/12 09:06:32;;;;;;;3.53;1.42;;;36.70;52.10;;;;;;5051960;28;20033;-60
2022/05/12 09:09:26;;;;;;;3.05;1.30;;;35.30;54.30;;;;;;5053450;28;20025;-60
2022/05/12 09:12:24;;;;;;;3.83;1.48;;;34.80;53.30;;;;;;5052255;28;20029;-60
2022/05/12 09:15:00;;;;;;;4.13;1.42;;;35.10;53.70;;;;;;5052324;28;20029;-60
2022/05/12 09:17:48;;;;;;;4.55;1.65;;;35.20;53.00;;;;;;5051787;28;20074;-60
2022/05/12 09:20:14;;;;;;;1.92;1.60;;;34.60;53.10;;;;;;5053048;28;20414;-61
2022/05/12 09:22:41;;;;;;;1.90;1.60;;;34.40;53.80;;;;;;5052132;28;20017;-61
2022/05/12 09:25:09;;;;;;;2.13;1.50;;;33.90;53.60;;;;;;5051731;28;20017;-60
2022/05/12 09:27:38;;;;;;;4.43;1.48;;;34.30;54.10;;;;;;5052270;28;20025;-61
2022/05/12 09:30:08;;;;;;;2.95;1.33;;;35.00;54.40;;;;;;5051543;28;20525;-60
2022/05/12 09:32:37;;;;;;;2.72;1.30;;;36.00;53.80;;;;;;5051948;28;20091;-60
2022/05/12 09:35:11;;;;;;;5.63;1.70;;;36.20;51.30;;;;;;5052840;28;20029;-60
2022/05/12 09:37:40;;;;;;;3.60;1.85;;;35.70;53.10;;;;;;5053022;28;20104;-59
2022/05/12 09:40:37;;;;;;;1.85;1.50;;;35.30;52.60;;;;;;5052734;28;20539;-60
2022/05/12 09:43:29;;;;;;;4.20;2.10;;;35.50;52.50;;;;;;5053108;28;20018;-60
2022/05/12 09:46:13;;;;;;;5.25;1.75;;;35.30;51.40;;;;;;5052643;28;20040;-61
2022/05/12 09:48:40;;;;;;;1.98;1.33;;;35.20;53.10;;;;;;5051463;28;20025;-59
2022/05/12 09:51:15;;;;;;;3.33;1.60;;;35.40;51.20;;;;;;5052449;28;20094;-60
2022/05/12 09:53:41;;;;;;;3.85;1.30;;;35.60;52.30;;;;;;5052996;28;20025;-60
2022/05/12 09:56:11;;;;;;;2.00;1.25;;;35.60;51.50;;;;;;5051790;28;20098;-60
2022/05/12 09:58:41;;;;;;;2.78;1.50;;;36.20;51.50;;;;;;5051955;28;20075;-61
2022/05/12 10:01:19;;;;;;;3.03;1.77;;;37.30;50.30;;;;;;5052367;28;20033;-61
2022/05/12 10:09:26;;;;;;;3.38;1.23;;;38.50;48.40;;;;;;5056117;28;20036;-61
2022/05/12 10:12:13;;;;;;;3.03;1.75;;;38.80;47.80;;;;;;5055314;28;20079;-60
2022/05/12 10:15:06;;;;;;;2.50;1.60;;;38.60;46.90;;;;;;5054938;28;20041;-61
2022/05/12 10:17:43;;;;;;;3.92;1.70;;;37.50;48.20;;;;;;5054655;28;20045;-60
2022/05/12 10:20:18;;;;;;;4.22;1.40;;;36.90;47.10;;;;;;5055953;28;20045;-60
2022/05/12 10:22:56;;;;;;;3.05;1.67;;;36.70;48.10;;;;;;5055869;28;20550;-60
2022/05/12 10:25:39;;;;;;;3.25;1.40;;;36.20;49.20;;;;;;5055475;28;20403;-58
2022/05/12 10:28:48;;;;;;;3.30;1.05;;;35.40;49.70;;;;;;5054954;28;20088;-58
2022/05/12 10:31:44;;;;;;;3.78;1.40;;;34.40;49.70;;;;;;5055639;28;20032;-60
2022/05/12 10:34:21;;;;;;;1.77;1.20;;;33.70;50.10;;;;;;5054517;28;20032;-59
2022/05/12 10:37:00;;;;;;;2.65;1.20;;;33.40;50.60;;;;;;5054998;28;20032;-60
2022/05/12 10:39:48;;;;;;;7.07;1.35;;;32.60;54.10;;;;;;5055933;28;20101;-58
2022/05/12 10:42:40;;;;;;;2.13;1.45;;;32.00;55.90;;;;;;5055246;28;20055;-60
2022/05/12 10:45:16;;;;;;;2.78;1.50;;;31.40;54.90;;;;;;5054389;28;20025;-60
2022/05/12 10:48:05;;;;;;;4.55;1.52;;;30.90;55.00;;;;;;5055850;28;20021;-58
2022/05/12 10:50:57;;;;;;;2.83;1.35;;;30.60;55.90;;;;;;5047893;28;20037;-60
2022/05/12 10:53:48;;;;;;;3.42;1.75;;;30.20;57.20;;;;;;5054434;28;20028;-60
2022/05/12 10:56:28;;;;;;;4.45;1.65;;;29.60;56.70;;;;;;5055635;28;20021;-58
2022/05/12 10:59:31;;;;;;;4.38;1.60;;;29.40;56.30;;;;;;5055196;28;20028;-59
2022/05/12 11:02:15;;;;;;;17.58;2.03;;;29.20;58.70;;;;;;5054743;28;20043;-58
2022/05/12 11:04:47;;;;;;;2.75;1.88;;;29.10;57.90;;;;;;5055491;28;20013;-58
2022/05/12 11:07:13;;;;;;;3.38;1.30;;;28.80;58.20;;;;;;5054857;28;20083;-60
2022/05/12 11:09:50;;;;;;;3.90;1.60;;;28.70;59.10;;;;;;5055002;28;20029;-60
2022/05/12 11:12:28;;;;;;;1.48;1.10;;;28.50;57.20;;;;;;5055148;28;20029;-60
2022/05/12 11:15:10;;;;;;;2.47;1.20;;;28.30;59.30;;;;;;5054139;28;20075;-59
2022/05/12 11:17:42;;;;;;;3.47;1.10;;;28.00;59.30;;;;;;5053509;28;20537;-59
2022/05/12 11:20:23;;;;;;;1.27;1.17;;;27.90;58.30;;;;;;5053887;28;20052;-59
2022/05/12 11:22:51;;;;;;;;;;;27.90;58.80;;;;;;5053968;28;20041;-60
2022/05/12 11:25:26;;;;;;;4.43;1.02;;;27.60;58.80;;;;;;5053495;28;19905;-60
2022/05/12 11:31:01;;;;;;;1.85;0.98;;;27.20;60.50;;;;;;5054989;28;20032;-60
2022/05/12 11:33:38;;;;;;;1.63;1.33;;;27.10;61.80;;;;;;5054701;28;20050;-60
2022/05/12 11:36:07;;;;;;;2.65;1.00;;;27.20;62.00;;;;;;5053594;28;20075;-58
2022/05/12 11:38:39;;;;;;;7.32;1.50;;;27.30;59.20;;;;;;5054332;28;20021;-60
2022/05/12 11:41:36;;;;;;;2.78;1.40;;;27.30;59.00;;;;;;5054445;28;20021;-60
2022/05/12 11:44:27;;;;;;;1.17;1.08;;;27.20;62.20;;;;;;5053233;28;20021;-60
2022/05/12 11:47:14;;;;;;;3.40;1.20;;;27.10;60.00;;;;;;5054718;28;20025;-60
2022/05/12 11:49:54;;;;;;;3.05;1.10;;;27.10;59.70;;;;;;5053012;28;20021;-59
2022/05/12 11:53:04;;;;;;;3.58;1.10;;;27.10;59.90;;;;;;5052962;28;20025;-59
2022/05/12 11:55:35;;;;;;;2.78;0.93;;;27.10;60.10;;;;;;5037793;28;20029;-60
2022/05/12 11:58:11;;;;;;;4.07;1.55;;;27.10;61.50;;;;;;5052767;28;20418;-59
2022/05/12 12:00:37;;;;;;;1.92;1.20;;;27.00;61.40;;;;;;5052853;28;20021;-59
2022/05/12 12:03:22;;;;;;;3.35;1.33;;;27.00;59.80;;;;;;5054266;28;20025;-60
2022/05/12 12:05:47;;;;;;;2.45;1.10;;;26.90;61.40;;;;;;5053960;28;20074;-59
2022/05/12 12:08:40;;;;;;;4.53;1.52;;;26.80;60.50;;;;;;5053870;28;20029;-60
2022/05/12 12:11:15;;;;;;;2.00;0.90;;;26.50;60.00;;;;;;5053962;28;20021;-59
2022/05/12 12:13:43;;;;;;;2.92;1.00;;;26.50;62.90;;;;;;5052440;28;20033;-60
2022/05/12 12:16:13;;;;;;;1.15;0.80;;;26.50;60.00;;;;;;5054014;28;20099;-60
2022/05/12 12:18:39;;;;;;;2.90;1.30;;;26.40;61.10;;;;;;5053904;28;20061;-59
2022/05/12 12:21:30;;;;;;;2.63;1.35;;;26.60;62.60;;;;;;5053776;28;20056;-59
2022/05/12 12:24:06;;;;;;;2.80;1.23;;;26.50;63.30;;;;;;5052836;28;20047;-59
2022/05/12 12:26:36;;;;;;;3.00;1.20;;;26.30;59.60;;;;;;5053943;28;20036;-59
2022/05/12 12:29:17;;;;;;;7.55;1.50;;;26.10;61.60;;;;;;5053604;28;20108;-58
2022/05/12 12:31:49;;;;;;;1.38;1.20;;;26.10;61.30;;;;;;5052653;28;20032;-59
2022/05/12 12:34:26;;;;;;;1.83;1.05;;;26.10;62.50;;;;;;5052207;28;20035;-59
2022/05/12 12:36:56;;;;;;;1.50;1.00;;;26.10;60.60;;;;;;5052553;28;20368;-59
2022/05/12 12:39:38;;;;;;;2.83;1.33;;;26.20;62.00;;;;;;5053355;28;20384;-59
2022/05/12 12:42:19;;;;;;;1.90;1.15;;;26.10;61.40;;;;;;5053498;28;20083;-59
2022/05/12 12:44:49;;;;;;;2.60;1.08;;;26.10;62.90;;;;;;5053457;28;20033;-59
2022/05/12 12:47:35;;;;;;;1.70;1.13;;;26.10;60.90;;;;;;5052706;28;20040;-59
2022/05/12 12:50:29;;;;;;;2.67;0.90;;;26.20;61.50;;;;;;5052129;28;20029;-58
2022/05/12 12:52:57;;;;;;;1.20;1.00;;;26.20;62.70;;;;;;5053363;28;20024;-59
2022/05/12 12:58:34;;;;;;;2.05;1.08;;;26.10;60.90;;;;;;5053458;28;20446;-60
2022/05/12 13:01:03;;;;;;;5.38;1.13;;;26.10;61.60;;;;;;5053218;28;20021;-59
2022/05/12 13:03:33;;;;;;;6.07;1.40;;;26.00;59.90;;;;;;5052070;28;20028;-59
2022/05/12 13:06:13;;;;;;;2.63;1.00;;;26.00;63.00;;;;;;5053192;28;20146;-60
2022/05/12 13:08:38;;;;;;;2.65;1.27;;;25.90;62.70;;;;;;5051873;28;20032;-60
2022/05/12 13:11:06;;;;;;;2.20;0.95;;;25.90;63.10;;;;;;5052146;28;20029;-59
2022/05/12 13:13:45;;;;;;;2.60;1.10;;;25.90;62.70;;;;;;5051844;28;20033;-59
2022/05/12 13:16:16;;;;;;;2.47;1.00;;;25.80;63.90;;;;;;5052756;28;20036;-58
2022/05/12 13:18:51;;;;;;;1.63;1.00;;;25.80;63.00;;;;;;5052668;28;20029;-59
2022/05/12 13:21:34;;;;;;;1.10;0.98;;;25.70;64.20;;;;;;5053241;28;20108;-60
2022/05/12 13:24:13;;;;;;;2.35;1.10;;;25.70;62.00;;;;;;5053164;28;20021;-59
2022/05/12 13:26:40;;;;;;;1.95;1.02;;;25.60;61.90;;;;;;5052978;28;20017;-59
2022/05/12 13:29:08;;;;;;;2.65;1.30;;;25.70;62.20;;;;;;5051587;28;20029;-58